JP7FSO Weather Reports


Display with metric or nautical units.
time (UTC)temp
F
wind
direction
speed
MPH
gust
MPH
rain 1hr
in
rain 24hr
in
rain mn
in
humidity
%
barometer
mb
20181114213155 40 252 0.0 0.0 0.00 0.00 0.00 85 1015.1
20181114211641 40 252 0.0 0.0 0.00 0.00 0.00 85 1015.0
20181114210206 40 252 0.0 0.0 0.00 0.00 0.00 85 1014.8
20181114204717 40 252 0.0 0.0 0.00 0.00 0.00 85 1014.6
20181114203149 41 252 0.0 0.0 0.00 0.00 0.00 85 1014.5
20181114201609 41 252 0.0 0.0 0.00 0.00 0.00 85 1014.5
20181114200215 41 252 0.0 0.0 0.00 0.00 0.00 84 1014.4
20181114194634 41 252 0.0 0.0 0.00 0.00 0.00 84 1014.2
20181114193049 42 252 0.0 0.0 0.00 0.00 0.00 83 1014.0
20181114191608 42 252 0.0 0.0 0.00 0.00 0.00 82 1013.9
20181114190137 42 252 0.0 0.0 0.00 0.00 0.00 82 1013.7
20181114184641 43 252 0.0 0.0 0.00 0.00 0.00 81 1013.5
20181114183104 43 252 0.0 0.0 0.00 0.00 0.00 80 1013.7
20181114181550 44 252 0.0 0.0 0.00 0.00 0.00 79 1013.4
20181114180100 44 252 0.0 0.0 0.00 0.00 0.00 78 1013.5
20181114174544 45 252 0.0 0.0 0.00 0.00 0.00 78 1013.5
20181114173121 45 252 0.0 0.0 0.00 0.00 0.00 77 1013.4
20181114171616 45 252 0.0 0.0 0.00 0.00 0.00 77 1013.5
20181114170107 46 252 0.0 0.0 0.00 0.00 0.00 77 1013.4
20181114164600 46 252 0.0 0.0 0.00 0.00 0.00 77 1013.3
20181114163032 46 252 0.0 0.0 0.00 0.00 0.00 77 1013.3
20181114161542 46 252 0.0 0.0 0.00 0.00 0.00 77 1013.3
20181114160049 46 252 0.0 0.0 0.00 0.00 0.00 76 1013.3
20181114154525 46 252 0.0 0.0 0.00 0.00 0.00 76 1013.3
20181114153032 46 252 0.0 0.0 0.00 0.00 0.00 75 1013.2
20181114151543 46 252 0.0 0.0 0.00 0.00 0.00 75 1013.2
20181114150059 47 252 0.0 0.0 0.00 0.00 0.00 75 1013.0
20181114144546 47 252 0.0 0.0 0.00 0.00 0.00 76 1013.0
20181114143029 46 252 0.0 0.0 0.00 0.00 0.00 75 1012.9
20181114141531 46 252 0.0 0.0 0.00 0.00 0.00 74 1012.9
20181114140019 46 252 0.0 0.0 0.00 0.00 0.00 74 1012.9
20181114134531 47 252 0.0 0.0 0.00 0.00 0.00 73 1012.8
20181114133027 47 252 0.0 0.0 0.00 0.00 0.00 72 1012.9
20181114131523 47 252 0.0 0.0 0.00 0.00 0.00 71 1012.8
20181114130043 48 252 0.0 0.0 0.00 0.00 0.00 71 1012.8
20181114124609 49 252 0.0 0.0 0.00 0.00 0.00 70 1012.7
20181114123019 49 252 0.0 0.0 0.00 0.00 0.00 69 1012.7
20181114121530 49 252 0.0 0.0 0.00 0.00 0.00 69 1012.8
20181114120041 48 252 0.0 0.0 0.00 0.00 0.00 70 1012.8
20181114114546 48 251 0.0 0.0 0.00 0.00 0.00 70 1012.5
20181114113025 48 251 0.0 0.0 0.00 0.00 0.00 69 1012.4
20181114111526 48 251 0.0 0.0 0.00 0.00 0.00 68 1012.2
20181114110013 49 251 0.0 0.0 0.00 0.00 0.00 67 1011.9
20181114104532 49 251 0.0 0.0 0.00 0.00 0.00 66 1011.9
20181114103030 50 251 0.0 0.0 0.00 0.00 0.00 64 1011.9
20181114101542 50 251 1.0 0.0 0.00 0.00 0.00 64 1011.7
20181114100011 51 251 0.0 0.0 0.00 0.00 0.00 63 1011.5
20181114094519 51 252 0.0 0.0 0.00 0.00 0.00 61 1011.3
20181114093008 52 253 2.0 0.0 0.00 0.00 0.00 60 1011.3
20181114091520 53 252 2.0 0.0 0.00 0.00 0.00 58 1011.3
20181114090031 53 250 2.0 0.0 0.00 0.00 0.00 58 1011.0
20181114084506 53 250 2.0 0.0 0.00 0.00 0.00 57 1010.9
20181114083003 53 235 1.0 0.0 0.00 0.00 0.00 56 1010.8
20181114081504 53 234 2.0 0.0 0.00 0.00 0.00 54 1010.7
20181114080002 54 239 2.0 0.0 0.00 0.00 0.00 53 1010.3
20181114074508 55 240 4.0 0.0 0.00 0.00 0.00 50 1010.1
20181114073003 56 264 3.0 0.0 0.00 0.00 0.00 47 1009.8
20181114071708 57 250 2.0 0.0 0.00 0.00 0.00 44 1009.7
20181114070245 58 248 1.0 0.0 0.00 0.00 0.00 40 1009.4
20181114064621 59 248 1.0 0.0 0.00 0.00 0.00 37 1009.2
20181114063205 59 252 1.0 0.0 0.00 0.00 0.00 38 1009.1
20181114061643 59 256 3.0 0.0 0.00 0.00 0.00 36 1008.8
20181114060147 60 257 2.0 0.0 0.00 0.00 0.00 36 1008.6
20181114054657 61 259 1.0 0.0 0.00 0.00 0.00 35 1008.4
20181114053245 62 268 1.0 0.0 0.00 0.00 0.00 33 1008.3
20181114051651 62 274 1.0 0.0 0.00 0.00 0.00 33 1008.2
20181114044556 62 259 2.0 0.0 0.00 0.00 0.00 34 1008.1
20181114043050 61 274 2.0 0.0 0.00 0.00 0.00 34 1008.1
20181114041544 61 255 2.0 0.0 0.00 0.00 0.00 35 1008.1
20181114040134 62 250 2.0 0.0 0.00 0.00 0.00 34 1008.0
20181114034557 61 218 1.0 0.0 0.00 0.00 0.00 33 1007.9
20181114033100 61 205 1.0 0.0 0.00 0.00 0.00 32 1008.0
20181114031536 60 190 0.0 0.0 0.00 0.00 0.00 35 1008.1
20181114030115 60 199 1.0 0.0 0.00 0.00 0.00 35 1008.1
20181114024524 59 183 1.0 0.0 0.00 0.00 0.00 35 1008.4
20181114023020 59 202 1.0 0.0 0.00 0.00 0.00 35 1008.6
20181114021546 59 193 0.0 0.0 0.00 0.00 0.00 37 1008.8
20181114020034 58 198 1.0 0.0 0.00 0.00 0.00 45 1009.1
20181114014513 58 218 1.0 0.0 0.00 0.00 0.00 47 1009.5
20181114013009 56 230 1.0 0.0 0.00 0.00 0.00 55 1009.7
20181114011501 55 241 0.0 0.0 0.00 0.00 0.00 61 1009.8
20181114010216 53 244 1.0 0.0 0.00 0.00 0.00 64 1009.9
20181114004715 51 244 0.0 0.0 0.00 0.00 0.00 70 1010.1
20181114003150 49 244 0.0 0.0 0.00 0.00 0.00 76 1010.2
20181114001626 47 244 0.0 0.0 0.00 0.00 0.00 80 1010.2
20181114000108 45 244 0.0 0.0 0.00 0.00 0.00 82 1010.2
20181113234613 44 244 0.0 0.0 0.00 0.00 0.00 85 1010.2
20181113233127 43 244 0.0 0.0 0.00 0.00 0.00 87 1010.3
20181113231631 42 244 0.0 0.0 0.00 0.00 0.00 88 1010.3
20181113230049 41 244 0.0 0.0 0.00 0.00 0.00 88 1010.2
20181113224551 40 244 0.0 0.0 0.00 0.00 0.00 87 1010.1
20181113223021 39 244 0.0 0.0 0.00 0.00 0.00 86 1009.9
20181113221533 39 244 0.0 0.0 0.00 0.00 0.00 85 1009.8
20181113220020 39 244 0.0 0.0 0.00 0.00 0.00 85 1009.8
20181113214514 40 244 0.0 0.0 0.00 0.00 0.00 85 1009.6